Fort Pierre, SD (57532)

7:40 AM MDT on August 20, 2014 (GMT -0600)
East of Hospital; Pierre, SD | Change Station
CLOSE
Current Station
Personal Weather Station
Location: Pierre, SD
Elevation: 1430 ft
Nearby Weather Stations

Elev 1430 ft 44.36 °N, 100.34 °W | Updated 22 seconds ago

Clear
Clear
71.5 °F
Feels Like 72 °F
N
4.0
Wind Variable Wind from East
Gusts 5.0 mph

Today
High -- | Low -- °F
--% Chance of Precip.
Yesterday
High -- | Low -- °F
Precip. -- in
5:50 AM 7:38 PM
Waning Crescent, 21% visible
Pressure 29.65 in
Visibility 10.0 miles
Clouds Clear
Heat Index 72 °F
Dew Point 65 °F
Humidity 79%
Rainfall 1.15 in
Snow Depth Not available.
UV 1 out of 12
Pollen 7.70 out of 12
Air Quality Not available.
Flu Activity Not available.
METAR KPIR 201253Z AUTO 12008KT 10SM CLR 19/16 A2969 RMK AO2 SLP039 T01940161

More Conditions Fewer Conditions

Pressure 29.65 in
Visibility 10.0 miles
Clouds Clear
Heat Index 72 °F
Dew Point 65 °F
Humidity 79%
Rainfall 1.15 in
Snow Depth Not available.
UV 1 out of 12
Pollen 7.70 out of 12
Air Quality Not available.
Flu Activity Not available.
METAR KPIR 201253Z AUTO 12008KT 10SM CLR 19/16 A2969 RMK AO2 SLP039 T01940161

More Conditions Fewer Conditions

10-Day Weather Forecast

Almanac

Astronomy

Aug. 20, 2014 Rise Set
Actual Time 5:50 AM MDT 7:38 PM MDT
Civil Twilight 5:19 AM MDT 8:09 PM MDT
Nautical Twilight 4:41 AM MDT 8:46 PM MDT
Astronomical Twilight 4:00 AM MDT 9:27 PM MDT
Moon 1:27 AM MDT 4:28 PM MDT
Length of Visible Light 14h 49m
Length of Day
13h 47m
Tomorrow will be 2m 48s shorter.
Waning Crescent, 21% of the Moon is Illuminated
Today
Waning Crescent
Aug 25
New
Sep 2
First Quarter
Sep 8
Full
Sep 15
Last Quarter

Today's Extremes

State Highs State Lows

Community

WunderPhotos

Upload Photos

1,745,630 photos uploaded!

WunderBlogs® & News

By Dr. Jeff Masters
Director of Meteorology, Weather Underground
By Kari Strenfel
Meteorologist, Weather Underground
By Christopher C. Burt
Weather Historian, Weather Underground
August 20, 2014
August 20, 2014
August 20, 2014

Nearby

Snow Depth

Station Depth Elevation
North Rapid Creek 0 in 6130 ft
Blind Park 0 in 6890 ft

Earthquake Activity

City Distance Mag. Time & Date
No recent earthquake activity has been reported nearby.
Minimum magnitude displayed is 2.5.

Coastal Water Temperatures

Place Temperature
No Stations Reporting

Nearby Weather Stations